Time;durP1;ratioP1;P1;durP2;ratioP2;P2;SDS_P1;SDS_P2;PMS_P1;PMS_P2;Temp;Humidity;BMP_temperature;BMP_pressure;BME280_temperature;BME280_humidity;BME280_pressure;Samples;Min_cycle;Max_cycle;Signal;HPM_P1;HPM_P2
2023/07/11 00:00:26;;;;;;;5.83;5.20;;;;;;;;;;5012741;28;20470;-56
2023/07/11 00:02:53;;;;;;;5.27;4.50;;;;;;;;;;5012313;28;20912;-55
2023/07/11 00:05:20;;;;;;;7.17;6.57;;;;;;;;;;5011671;28;20463;-56
2023/07/11 00:07:48;;;;;;;6.57;5.83;;;;;;;;;;5012231;28;20518;-56
2023/07/11 00:10:16;;;;;;;6.60;5.60;;;;;;;;;;5012699;28;20526;-56
2023/07/11 00:12:43;;;;;;;5.40;4.67;;;;;;;;;;5012081;28;20527;-56
2023/07/11 00:15:12;;;;;;;6.70;5.70;;;;;;;;;;5012092;28;20542;-56
2023/07/11 00:17:41;;;;;;;5.83;5.23;;;;;;;;;;5012180;28;20882;-56
2023/07/11 00:20:09;;;;;;;8.30;5.17;;;;;;;;;;5011824;28;20443;-56
2023/07/11 00:22:37;;;;;;;7.27;6.47;;;;;;;;;;5012255;28;20888;-56
2023/07/11 00:25:05;;;;;;;5.93;5.30;;;;;;;;;;5010054;28;20463;-56
2023/07/11 00:27:32;;;;;;;6.60;5.67;;;;;;;;;;5003855;28;20472;-56
2023/07/11 00:29:59;;;;;;;6.40;5.80;;;;;;;;;;4993983;28;20484;-56
2023/07/11 00:32:27;;;;;;;6.20;5.27;;;;;;;;;;4993673;28;21367;-56
2023/07/11 00:34:55;;;;;;;10.60;6.17;;;;;;;;;;5013152;28;20563;-54
2023/07/11 00:37:22;;;;;;;5.43;4.93;;;;;;;;;;5013353;28;20900;-54
2023/07/11 00:39:50;;;;;;;8.23;6.60;;;;;;;;;;5012033;28;21004;-53
2023/07/11 00:42:17;;;;;;;5.90;5.20;;;;;;;;;;5012741;28;20538;-54
2023/07/11 00:44:51;;;;;;;7.90;5.77;;;;;;;;;;5012467;28;20907;-54
2023/07/11 00:47:18;;;;;;;5.23;4.50;;;;;;;;;;5013036;28;20478;-56
2023/07/11 00:49:47;;;;;;;6.13;5.53;;;;;;;;;;5012697;28;21006;-56
2023/07/11 00:52:16;;;;;;;5.80;5.30;;;;;;;;;;5012107;28;20471;-56
2023/07/11 00:54:45;;;;;;;7.23;5.40;;;;;;;;;;5011045;28;20889;-56
2023/07/11 00:57:12;;;;;;;6.10;4.80;;;;;;;;;;5011825;28;20483;-56
2023/07/11 00:59:39;;;;;;;6.30;5.43;;;;;;;;;;5012474;28;20526;-56
2023/07/11 01:02:08;;;;;;;5.93;5.33;;;;;;;;;;5012837;28;20546;-56
2023/07/11 01:04:36;;;;;;;7.23;5.70;;;;;;;;;;5012239;28;20924;-56
2023/07/11 01:07:03;;;;;;;9.73;6.63;;;;;;;;;;5017093;28;20557;-56
2023/07/11 01:09:32;;;;;;;6.50;5.90;;;;;;;;;;5009230;28;20527;-56
2023/07/11 01:12:00;;;;;;;5.37;4.80;;;;;;;;;;5011359;28;20533;-56
2023/07/11 01:14:28;;;;;;;6.00;5.30;;;;;;;;;;5012430;28;20499;-56
2023/07/11 01:16:55;;;;;;;7.63;6.53;;;;;;;;;;5012114;28;20448;-56
2023/07/11 01:19:23;;;;;;;7.27;6.57;;;;;;;;;;5012223;28;20522;-56
2023/07/11 01:21:52;;;;;;;6.47;5.87;;;;;;;;;;5012080;28;20486;-56
2023/07/11 01:24:19;;;;;;;6.77;6.07;;;;;;;;;;5010683;28;20444;-56
2023/07/11 01:26:46;;;;;;;6.27;5.67;;;;;;;;;;5012416;28;20891;-56
2023/07/11 01:29:14;;;;;;;6.50;5.80;;;;;;;;;;5006433;28;20444;-56
2023/07/11 01:31:41;;;;;;;5.30;4.80;;;;;;;;;;4992173;28;20530;-56
2023/07/11 01:34:09;;;;;;;7.53;6.33;;;;;;;;;;4991324;28;20833;-56
2023/07/11 01:36:36;;;;;;;7.67;6.00;;;;;;;;;;4992416;28;20527;-55
2023/07/11 01:39:07;;;;;;;7.43;6.40;;;;;;;;;;5010302;28;20530;-56
2023/07/11 01:41:35;;;;;;;7.00;6.30;;;;;;;;;;5011961;28;20936;-56
2023/07/11 01:44:03;;;;;;;7.20;6.50;;;;;;;;;;5001770;28;20440;-56
2023/07/11 01:46:30;;;;;;;6.93;5.70;;;;;;;;;;4992404;28;20519;-56
2023/07/11 01:48:57;;;;;;;6.70;5.90;;;;;;;;;;4996842;28;20531;-56
2023/07/11 01:51:24;;;;;;;7.17;5.60;;;;;;;;;;5001193;28;20447;-56
2023/07/11 01:53:52;;;;;;;5.80;5.27;;;;;;;;;;5011665;28;20526;-56
2023/07/11 01:56:21;;;;;;;7.03;5.90;;;;;;;;;;5011515;28;20565;-56
2023/07/11 01:58:48;;;;;;;6.23;5.50;;;;;;;;;;5011935;28;20474;-56
2023/07/11 02:01:15;;;;;;;6.03;5.30;;;;;;;;;;5011595;28;20879;-56
2023/07/11 02:03:43;;;;;;;6.43;5.83;;;;;;;;;;5011281;28;20447;-56
2023/07/11 02:06:10;;;;;;;7.33;6.50;;;;;;;;;;5010975;28;20562;-56
2023/07/11 02:08:37;;;;;;;6.70;5.93;;;;;;;;;;4994563;28;20532;-56
2023/07/11 02:11:04;;;;;;;6.37;5.70;;;;;;;;;;4991859;28;20526;-56
2023/07/11 02:13:33;;;;;;;8.03;6.50;;;;;;;;;;4991738;28;20527;-56
2023/07/11 02:16:00;;;;;;;6.30;5.70;;;;;;;;;;4994709;28;20490;-56
2023/07/11 02:18:27;;;;;;;5.77;5.20;;;;;;;;;;5011000;28;20526;-56
2023/07/11 02:20:57;;;;;;;6.27;5.67;;;;;;;;;;5011650;28;20531;-56
2023/07/11 02:23:24;;;;;;;6.43;5.40;;;;;;;;;;4997021;28;20523;-56
2023/07/11 02:25:54;;;;;;;6.83;5.90;;;;;;;;;;4990859;28;20984;-55
2023/07/11 02:28:21;;;;;;;6.53;5.80;;;;;;;;;;4991680;28;20448;-56
2023/07/11 02:30:50;;;;;;;6.53;5.40;;;;;;;;;;5007066;28;20981;-56
2023/07/11 02:33:17;;;;;;;7.33;6.00;;;;;;;;;;4990996;28;20445;-56
2023/07/11 02:35:45;;;;;;;6.93;6.23;;;;;;;;;;4998660;28;20460;-56
2023/07/11 02:38:13;;;;;;;5.77;5.17;;;;;;;;;;5010824;28;20530;-56
2023/07/11 02:40:40;;;;;;;7.13;5.50;;;;;;;;;;5010884;28;20529;-56
2023/07/11 02:43:07;;;;;;;7.13;5.83;;;;;;;;;;5010592;28;20531;-56
2023/07/11 02:45:34;;;;;;;7.07;6.03;;;;;;;;;;5061154;23;21087;-82
2023/07/11 02:48:03;;;;;;;5.23;4.73;;;;;;;;;;5022374;28;20487;-82
2023/07/11 02:50:30;;;;;;;7.83;6.40;;;;;;;;;;5016500;28;20423;-82
2023/07/11 02:52:57;;;;;;;6.20;5.60;;;;;;;;;;5011501;28;20483;-82
2023/07/11 02:55:25;;;;;;;6.87;6.10;;;;;;;;;;5011344;28;20471;-82
2023/07/11 02:57:52;;;;;;;7.13;5.97;;;;;;;;;;5011426;28;20498;-82
2023/07/11 03:00:19;;;;;;;6.70;5.40;;;;;;;;;;5011832;28;21068;-82
2023/07/11 03:02:46;;;;;;;6.27;5.57;;;;;;;;;;5011378;28;20529;-82
2023/07/11 03:05:15;;;;;;;6.07;5.40;;;;;;;;;;5011408;28;20482;-82
2023/07/11 03:07:42;;;;;;;7.30;6.20;;;;;;;;;;5010733;28;20514;-82
2023/07/11 03:10:10;;;;;;;8.33;6.00;;;;;;;;;;5010148;28;20572;-82
2023/07/11 03:12:37;;;;;;;6.20;5.53;;;;;;;;;;5009766;28;20481;-82
2023/07/11 03:15:05;;;;;;;6.00;4.93;;;;;;;;;;5009968;28;20546;-82
2023/07/11 03:17:32;;;;;;;7.13;5.97;;;;;;;;;;5017931;28;20475;-82
2023/07/11 03:19:59;;;;;;;6.77;6.00;;;;;;;;;;5015401;28;20447;-82
2023/07/11 03:22:28;;;;;;;10.93;7.03;;;;;;;;;;5013094;28;20826;-81
2023/07/11 03:24:55;;;;;;;6.80;6.10;;;;;;;;;;5004044;28;20451;-82
2023/07/11 03:27:22;;;;;;;6.50;5.43;;;;;;;;;;4995676;28;20487;-81
2023/07/11 03:29:50;;;;;;;6.53;5.53;;;;;;;;;;4994950;28;20452;-82
2023/07/11 03:32:17;;;;;;;7.77;5.90;;;;;;;;;;5004457;28;20478;-82
2023/07/11 03:34:44;;;;;;;6.67;5.97;;;;;;;;;;5015201;28;20518;-82
2023/07/11 03:37:12;;;;;;;5.27;4.77;;;;;;;;;;5015092;28;20478;-82
2023/07/11 03:39:40;;;;;;;7.43;6.70;;;;;;;;;;5015077;28;20501;-82
2023/07/11 03:42:08;;;;;;;6.67;6.00;;;;;;;;;;5015207;28;20447;-82
2023/07/11 03:44:35;;;;;;;6.67;5.97;;;;;;;;;;5015125;28;20490;-82
2023/07/11 03:47:02;;;;;;;6.07;5.57;;;;;;;;;;5013103;28;20973;-81
2023/07/11 03:49:29;;;;;;;7.17;5.90;;;;;;;;;;5014536;28;20530;-82
2023/07/11 03:51:57;;;;;;;6.80;5.80;;;;;;;;;;5014581;28;20518;-82
2023/07/11 03:54:24;;;;;;;6.20;5.60;;;;;;;;;;4997577;28;20531;-82
2023/07/11 03:56:53;;;;;;;6.63;5.93;;;;;;;;;;4994796;28;20447;-82
2023/07/11 03:59:21;;;;;;;5.70;4.90;;;;;;;;;;4995381;28;20476;-82
2023/07/11 04:01:48;;;;;;;8.60;6.20;;;;;;;;;;4995038;28;20452;-82
2023/07/11 04:04:16;;;;;;;6.23;5.53;;;;;;;;;;4994704;28;20539;-81
2023/07/11 04:06:43;;;;;;;5.80;5.30;;;;;;;;;;5013037;28;20518;-82
2023/07/11 04:09:10;;;;;;;5.77;5.27;;;;;;;;;;5014739;28;20526;-81
2023/07/11 04:11:38;;;;;;;8.30;7.23;;;;;;;;;;5014539;28;20544;-82
2023/07/11 04:14:07;;;;;;;7.30;6.60;;;;;;;;;;5014630;28;20576;-81
2023/07/11 04:16:34;;;;;;;7.00;6.30;;;;;;;;;;5014331;28;20479;-82
2023/07/11 04:19:01;;;;;;;6.40;5.80;;;;;;;;;;5014586;28;20463;-82
2023/07/11 04:21:29;;;;;;;5.73;5.13;;;;;;;;;;5014526;28;20443;-82
2023/07/11 04:23:56;;;;;;;13.10;6.83;;;;;;;;;;5014408;28;20489;-82
2023/07/11 04:26:23;;;;;;;6.07;5.47;;;;;;;;;;5015957;23;20491;-49
2023/07/11 04:28:50;;;;;;;8.20;6.37;;;;;;;;;;5013093;28;20566;-48
2023/07/11 04:31:19;;;;;;;6.20;5.60;;;;;;;;;;5013311;28;20539;-49
2023/07/11 04:33:46;;;;;;;7.57;6.07;;;;;;;;;;5012949;28;20526;-49
2023/07/11 04:36:15;;;;;;;9.33;6.73;;;;;;;;;;5012869;28;20467;-48
2023/07/11 04:38:42;;;;;;;7.07;6.37;;;;;;;;;;5012677;28;20471;-48
2023/07/11 04:41:09;;;;;;;6.87;6.13;;;;;;;;;;5012825;28;20440;-47
2023/07/11 04:43:37;;;;;;;5.93;5.33;;;;;;;;;;5012426;28;20475;-49
2023/07/11 04:46:05;;;;;;;6.27;5.60;;;;;;;;;;5012459;28;20542;-47
2023/07/11 04:48:34;;;;;;;6.67;6.03;;;;;;;;;;5012419;28;21045;-48
2023/07/11 04:51:02;;;;;;;6.00;5.00;;;;;;;;;;5009335;28;20656;-49
2023/07/11 04:53:30;;;;;;;5.90;5.30;;;;;;;;;;5012459;28;20467;-48
2023/07/11 04:55:57;;;;;;;6.90;6.20;;;;;;;;;;5012621;28;20538;-47
2023/07/11 04:58:25;;;;;;;8.60;7.10;;;;;;;;;;5012390;28;20817;-47
2023/07/11 05:00:52;;;;;;;6.87;5.60;;;;;;;;;;5009996;28;20526;-47
2023/07/11 05:03:19;;;;;;;7.30;5.87;;;;;;;;;;5011636;28;20522;-47
2023/07/11 05:05:48;;;;;;;6.53;5.30;;;;;;;;;;5012328;28;20541;-47
2023/07/11 05:08:16;;;;;;;8.57;6.60;;;;;;;;;;5007790;28;20550;-47
2023/07/11 05:10:49;;;;;;;5.93;5.33;;;;;;;;;;5001612;28;20439;-46
2023/07/11 05:13:16;;;;;;;7.93;6.33;;;;;;;;;;4992793;28;20472;-48
2023/07/11 05:15:43;;;;;;;8.93;6.60;;;;;;;;;;4993044;28;20570;-47
2023/07/11 05:18:11;;;;;;;6.03;5.43;;;;;;;;;;5010344;28;20493;-48
2023/07/11 05:20:38;;;;;;;6.83;6.00;;;;;;;;;;5011936;28;20448;-48
2023/07/11 05:23:07;;;;;;;7.80;6.43;;;;;;;;;;5012278;28;20448;-47
2023/07/11 05:25:36;;;;;;;6.30;5.67;;;;;;;;;;5011915;28;20562;-48
2023/07/11 05:28:03;;;;;;;6.83;6.13;;;;;;;;;;5011611;28;20511;-48
2023/07/11 05:30:31;;;;;;;7.13;5.93;;;;;;;;;;5002149;28;20530;-49
2023/07/11 05:32:58;;;;;;;7.33;6.30;;;;;;;;;;5004706;28;20475;-48
2023/07/11 05:35:25;;;;;;;6.23;5.63;;;;;;;;;;5001144;28;20542;-48
2023/07/11 05:37:52;;;;;;;5.90;4.93;;;;;;;;;;4992343;28;20475;-47
2023/07/11 05:40:21;;;;;;;6.07;5.47;;;;;;;;;;5003835;28;20545;-47
2023/07/11 05:42:48;;;;;;;6.87;5.83;;;;;;;;;;5011718;28;21026;-47
2023/07/11 05:45:15;;;;;;;7.23;6.50;;;;;;;;;;5010869;28;20610;-47
2023/07/11 05:47:43;;;;;;;5.90;5.20;;;;;;;;;;5007909;28;20562;-47
2023/07/11 05:50:10;;;;;;;6.50;5.90;;;;;;;;;;5007109;28;20619;-47
2023/07/11 05:52:37;;;;;;;7.57;6.70;;;;;;;;;;5011477;28;20530;-48
2023/07/11 05:55:05;;;;;;;8.10;6.63;;;;;;;;;;5006136;28;20463;-47
2023/07/11 05:57:33;;;;;;;7.17;6.53;;;;;;;;;;5002954;28;20518;-48
2023/07/11 06:00:00;;;;;;;6.30;5.33;;;;;;;;;;5010367;28;20530;-48
2023/07/11 06:02:28;;;;;;;6.57;5.90;;;;;;;;;;5003623;28;20531;-48
2023/07/11 06:04:55;;;;;;;6.40;5.80;;;;;;;;;;5011631;28;20499;-47
2023/07/11 06:07:22;;;;;;;7.00;6.10;;;;;;;;;;5011446;28;21011;-47
2023/07/11 06:09:50;;;;;;;9.03;7.13;;;;;;;;;;5010941;28;20490;-47
2023/07/11 06:12:17;;;;;;;10.13;7.40;;;;;;;;;;5011039;28;20526;-48
2023/07/11 06:14:45;;;;;;;8.50;6.40;;;;;;;;;;5011273;28;20534;-48
2023/07/11 06:17:13;;;;;;;7.80;6.47;;;;;;;;;;5011161;28;20921;-47
2023/07/11 06:19:40;;;;;;;6.50;5.90;;;;;;;;;;5009079;28;20546;-48
2023/07/11 06:22:07;;;;;;;7.20;6.50;;;;;;;;;;5008289;28;20819;-48
2023/07/11 06:24:36;;;;;;;7.70;6.83;;;;;;;;;;5007745;28;20486;-47
2023/07/11 06:27:04;;;;;;;8.90;7.63;;;;;;;;;;5009894;28;20453;-48
2023/07/11 06:29:32;;;;;;;7.57;6.87;;;;;;;;;;5010250;28;20511;-47
2023/07/11 06:32:00;;;;;;;8.00;7.00;;;;;;;;;;5007758;28;20509;-48
2023/07/11 06:34:27;;;;;;;8.97;7.37;;;;;;;;;;5008333;28;20540;-47
2023/07/11 06:36:55;;;;;;;9.10;7.00;;;;;;;;;;5006531;28;20516;-47
2023/07/11 06:39:22;;;;;;;6.20;5.60;;;;;;;;;;5006985;28;20505;-48
2023/07/11 06:41:49;;;;;;;11.33;8.47;;;;;;;;;;5007311;28;20521;-48
2023/07/11 06:44:16;;;;;;;10.03;9.03;;;;;;;;;;5004876;28;20467;-48
2023/07/11 06:46:44;;;;;;;8.70;7.90;;;;;;;;;;5008124;28;20569;-47
2023/07/11 06:49:12;;;;;;;6.57;5.87;;;;;;;;;;5005381;28;20574;-47
2023/07/11 06:51:39;;;;;;;7.67;6.80;;;;;;;;;;5009834;28;20530;-48
2023/07/11 06:54:07;;;;;;;7.07;6.47;;;;;;;;;;5006711;28;20558;-48
2023/07/11 06:56:34;;;;;;;8.53;6.63;;;;;;;;;;5005837;28;20475;-49
2023/07/11 06:59:01;;;;;;;6.73;6.03;;;;;;;;;;5008964;28;20643;-47
2023/07/11 07:01:29;;;;;;;8.10;7.30;;;;;;;;;;5007008;28;20542;-49
2023/07/11 07:03:57;;;;;;;7.70;6.70;;;;;;;;;;5006961;28;20466;-48
2023/07/11 07:06:25;;;;;;;7.80;7.03;;;;;;;;;;4999434;28;20550;-48
2023/07/11 07:08:52;;;;;;;7.97;7.23;;;;;;;;;;5002746;28;20959;-47
2023/07/11 07:11:20;;;;;;;7.93;7.13;;;;;;;;;;5007026;28;20555;-47
2023/07/11 07:13:49;;;;;;;9.10;7.80;;;;;;;;;;5009898;28;20869;-47
2023/07/11 07:16:16;;;;;;;9.80;8.07;;;;;;;;;;5010514;28;20485;-48
2023/07/11 07:18:44;;;;;;;7.70;7.00;;;;;;;;;;5008116;28;20903;-46
2023/07/11 07:21:11;;;;;;;7.63;6.93;;;;;;;;;;5008456;28;20501;-47
2023/07/11 07:23:40;;;;;;;8.10;7.30;;;;;;;;;;5005753;28;20538;-48
2023/07/11 07:26:08;;;;;;;8.70;6.57;;;;;;;;;;5006244;28;20522;-48
2023/07/11 07:28:35;;;;;;;10.00;8.47;;;;;;;;;;5009060;28;20564;-48
2023/07/11 07:31:05;;;;;;;7.97;7.27;;;;;;;;;;5010386;28;21070;-48
2023/07/11 07:33:32;;;;;;;8.57;7.67;;;;;;;;;;5010210;28;20455;-47
2023/07/11 07:36:02;;;;;;;9.10;7.50;;;;;;;;;;5010541;28;20538;-48
2023/07/11 07:38:30;;;;;;;7.90;7.10;;;;;;;;;;5010223;28;20804;-48
2023/07/11 07:40:59;;;;;;;8.27;7.47;;;;;;;;;;5010179;28;20522;-49
2023/07/11 07:43:27;;;;;;;9.13;8.20;;;;;;;;;;5008742;28;20443;-48
2023/07/11 07:45:56;;;;;;;8.83;8.03;;;;;;;;;;5009669;28;20507;-48
2023/07/11 07:48:23;;;;;;;9.50;8.67;;;;;;;;;;5008900;28;20558;-48
2023/07/11 07:50:50;;;;;;;10.50;7.87;;;;;;;;;;5010670;28;20537;-47
2023/07/11 07:53:18;;;;;;;9.93;8.80;;;;;;;;;;5009773;28;20717;-48
2023/07/11 07:55:45;;;;;;;9.13;8.23;;;;;;;;;;5009934;28;20573;-49
2023/07/11 07:58:14;;;;;;;7.60;6.90;;;;;;;;;;5009823;28;20471;-48
2023/07/11 08:00:42;;;;;;;9.50;8.60;;;;;;;;;;5010612;28;20439;-48
2023/07/11 08:03:09;;;;;;;9.70;8.80;;;;;;;;;;5010317;28;20480;-47
2023/07/11 08:05:37;;;;;;;10.40;8.00;;;;;;;;;;5010085;28;20479;-47
2023/07/11 08:08:04;;;;;;;9.47;8.60;;;;;;;;;;5012478;28;20999;-47
2023/07/11 08:10:33;;;;;;;10.33;8.20;;;;;;;;;;5013848;28;20443;-48
2023/07/11 08:13:00;;;;;;;8.60;7.60;;;;;;;;;;5007262;28;20472;-48
2023/07/11 08:15:29;;;;;;;7.70;6.90;;;;;;;;;;5005974;28;20554;-47
2023/07/11 08:17:56;;;;;;;7.00;6.30;;;;;;;;;;5002428;28;20443;-49
2023/07/11 08:20:23;;;;;;;7.50;6.70;;;;;;;;;;5009583;28;20900;-48
2023/07/11 08:22:51;;;;;;;7.90;7.20;;;;;;;;;;5012702;28;20615;-48
2023/07/11 08:25:18;;;;;;;8.43;7.40;;;;;;;;;;5011584;28;20479;-48
2023/07/11 08:27:45;;;;;;;10.13;7.80;;;;;;;;;;5013276;28;20526;-48
2023/07/11 08:30:13;;;;;;;10.17;8.40;;;;;;;;;;5012947;28;20541;-48
2023/07/11 08:32:41;;;;;;;8.60;7.80;;;;;;;;;;5012666;28;20478;-47
2023/07/11 08:35:09;;;;;;;7.43;6.63;;;;;;;;;;5012864;28;20999;-48
2023/07/11 08:37:36;;;;;;;9.10;8.20;;;;;;;;;;5013402;28;20542;-48
2023/07/11 08:40:04;;;;;;;8.83;8.03;;;;;;;;;;5013384;28;20952;-48
2023/07/11 08:42:33;;;;;;;8.10;7.30;;;;;;;;;;5012698;28;20447;-48
2023/07/11 08:45:03;;;;;;;8.43;7.30;;;;;;;;;;5012941;28;20518;-48
2023/07/11 08:47:32;;;;;;;8.70;7.90;;;;;;;;;;5013160;28;20874;-48
2023/07/11 08:50:01;;;;;;;8.10;7.40;;;;;;;;;;5012177;28;20475;-48
2023/07/11 08:52:31;;;;;;;7.83;6.93;;;;;;;;;;5012561;28;20498;-48
2023/07/11 08:55:11;;;;;;;7.87;6.70;;;;;;;;;;5012638;28;20565;-48
2023/07/11 08:57:40;;;;;;;8.17;7.30;;;;;;;;;;5012778;28;20498;-49
2023/07/11 09:00:09;;;;;;;8.67;7.77;;;;;;;;;;5012838;28;20518;-48
2023/07/11 09:02:41;;;;;;;7.83;7.13;;;;;;;;;;5012213;28;21015;-48
2023/07/11 09:05:14;;;;;;;7.47;6.70;;;;;;;;;;5012579;28;20499;-48
2023/07/11 09:07:42;;;;;;;8.70;7.80;;;;;;;;;;5012331;28;20532;-48
2023/07/11 09:10:18;;;;;;;9.17;8.20;;;;;;;;;;5012576;28;20482;-48
2023/07/11 09:12:48;;;;;;;8.70;7.87;;;;;;;;;;5011943;28;20927;-49
2023/07/11 09:15:19;;;;;;;7.50;6.80;;;;;;;;;;5011335;28;20550;-48
2023/07/11 09:17:53;;;;;;;9.20;7.30;;;;;;;;;;5012089;28;20530;-49
2023/07/11 09:20:26;;;;;;;9.67;7.20;;;;;;;;;;5009916;28;20475;-49
2023/07/11 09:22:57;;;;;;;9.37;7.63;;;;;;;;;;4992697;28;20486;-49
2023/07/11 09:25:28;;;;;;;10.07;8.40;;;;;;;;;;5005310;28;20557;-48
2023/07/11 09:27:56;;;;;;;10.37;8.03;;;;;;;;;;5011040;28;20451;-49
2023/07/11 09:30:26;;;;;;;9.80;8.80;;;;;;;;;;5009598;28;20471;-48
2023/07/11 09:32:53;;;;;;;8.90;8.10;;;;;;;;;;5010669;28;20483;-47
2023/07/11 09:35:28;;;;;;;8.47;7.60;;;;;;;;;;5011384;28;20893;-49
2023/07/11 09:37:57;;;;;;;7.77;7.00;;;;;;;;;;5011943;28;20470;-48
2023/07/11 09:40:30;;;;;;;8.63;7.83;;;;;;;;;;5011301;28;20440;-48
2023/07/11 09:42:58;;;;;;;9.00;7.13;;;;;;;;;;5011869;28;20439;-48
2023/07/11 09:45:28;;;;;;;8.80;8.00;;;;;;;;;;5011639;28;20495;-48
2023/07/11 09:47:59;;;;;;;9.30;8.40;;;;;;;;;;5006564;28;20452;-48
2023/07/11 09:50:32;;;;;;;8.17;7.43;;;;;;;;;;4992285;28;20507;-48
2023/07/11 09:53:01;;;;;;;8.70;7.90;;;;;;;;;;4998824;28;20877;-48
2023/07/11 09:55:33;;;;;;;9.67;7.83;;;;;;;;;;5011257;28;20471;-46
2023/07/11 09:58:01;;;;;;;10.97;8.93;;;;;;;;;;5010394;28;20458;-49
2023/07/11 10:00:28;;;;;;;8.43;7.37;;;;;;;;;;5011639;28;20530;-48
2023/07/11 10:02:58;;;;;;;8.77;7.80;;;;;;;;;;5010960;28;20666;-48
2023/07/11 10:05:26;;;;;;;9.93;8.90;;;;;;;;;;5011555;28;20498;-49
2023/07/11 10:08:04;;;;;;;9.33;8.43;;;;;;;;;;5010487;28;20483;-47
2023/07/11 10:10:32;;;;;;;11.53;10.43;;;;;;;;;;5016356;28;20557;-48
2023/07/11 10:13:03;;;;;;;10.80;9.70;;;;;;;;;;5009917;28;20483;-48
2023/07/11 10:15:30;;;;;;;8.93;7.43;;;;;;;;;;5010381;28;20542;-48
2023/07/11 10:17:57;;;;;;;8.83;7.53;;;;;;;;;;5011341;28;20538;-48
2023/07/11 10:20:26;;;;;;;8.80;7.73;;;;;;;;;;5009548;28;20446;-48
2023/07/11 10:22:56;;;;;;;9.77;8.77;;;;;;;;;;5010569;28;20485;-48
2023/07/11 10:25:27;;;;;;;10.20;8.40;;;;;;;;;;5011149;28;20478;-48
2023/07/11 10:27:56;;;;;;;8.57;7.77;;;;;;;;;;5009183;28;20831;-48
2023/07/11 10:30:26;;;;;;;11.00;9.80;;;;;;;;;;5007137;28;20526;-49
2023/07/11 10:32:56;;;;;;;7.60;6.77;;;;;;;;;;5000624;28;20443;-48
2023/07/11 10:35:24;;;;;;;11.30;7.53;;;;;;;;;;5000177;28;20492;-49
2023/07/11 10:37:54;;;;;;;8.30;7.53;;;;;;;;;;5000358;28;20443;-48
2023/07/11 10:40:27;;;;;;;9.70;8.70;;;;;;;;;;5000407;28;20538;-48
2023/07/11 10:42:59;;;;;;;9.17;8.13;;;;;;;;;;5001946;28;20476;-48
2023/07/11 10:45:28;;;;;;;9.73;8.93;;;;;;;;;;5007160;28;20490;-48
2023/07/11 10:47:59;;;;;;;11.83;9.40;;;;;;;;;;5004639;28;20527;-48
2023/07/11 10:50:34;;;;;;;9.67;8.77;;;;;;;;;;5001015;28;21103;-49
2023/07/11 10:53:03;;;;;;;10.10;9.10;;;;;;;;;;4995641;28;20550;-48
2023/07/11 10:55:34;;;;;;;9.90;8.90;;;;;;;;;;4999639;28;20537;-48
2023/07/11 10:58:04;;;;;;;8.80;8.00;;;;;;;;;;5010247;28;20801;-48
2023/07/11 11:00:38;;;;;;;10.23;9.33;;;;;;;;;;5010747;28;20489;-49
2023/07/11 11:03:13;;;;;;;10.13;9.23;;;;;;;;;;5009821;28;20530;-47
2023/07/11 11:05:45;;;;;;;9.10;8.20;;;;;;;;;;5009265;28;20494;-48
2023/07/11 11:08:15;;;;;;;9.07;8.17;;;;;;;;;;5008833;28;20490;-48
2023/07/11 11:10:49;;;;;;;10.00;9.00;;;;;;;;;;4989206;28;20855;-47
2023/07/11 11:13:24;;;;;;;9.60;8.67;;;;;;;;;;4990015;28;20854;-48
2023/07/11 11:15:57;;;;;;;10.30;9.30;;;;;;;;;;5006276;28;20553;-47
2023/07/11 11:18:35;;;;;;;9.90;9.00;;;;;;;;;;5007764;28;20447;-48
2023/07/11 11:21:07;;;;;;;8.27;7.47;;;;;;;;;;5009665;28;20522;-48
2023/07/11 11:23:43;;;;;;;8.57;7.70;;;;;;;;;;5008507;28;20474;-48
2023/07/11 11:26:15;;;;;;;7.40;6.70;;;;;;;;;;5007585;28;20813;-48
2023/07/11 11:28:46;;;;;;;8.40;7.60;;;;;;;;;;5007236;28;20444;-48
2023/07/11 11:31:21;;;;;;;10.23;9.20;;;;;;;;;;5008097;28;20534;-48
2023/07/11 11:33:54;;;;;;;8.87;7.97;;;;;;;;;;5007519;28;21091;-48
2023/07/11 11:36:26;;;;;;;8.70;7.80;;;;;;;;;;5007914;28;20883;-48
2023/07/11 11:38:59;;;;;;;8.43;7.63;;;;;;;;;;5007995;28;20526;-48
2023/07/11 11:41:32;;;;;;;8.13;7.23;;;;;;;;;;5009269;28;20519;-46
2023/07/11 11:44:01;;;;;;;9.57;7.70;;;;;;;;;;5012993;28;20526;-46
2023/07/11 11:46:29;;;;;;;8.20;7.50;;;;;;;;;;5013779;28;20542;-46
2023/07/11 11:48:58;;;;;;;9.83;7.10;;;;;;;;;;5014056;28;20501;-46
2023/07/11 11:51:26;;;;;;;8.30;7.60;;;;;;;;;;5013899;28;20519;-47
2023/07/11 11:54:04;;;;;;;8.80;7.90;;;;;;;;;;5013410;28;20534;-46
2023/07/11 11:56:31;;;;;;;6.80;6.07;;;;;;;;;;5013885;28;20538;-46
2023/07/11 11:59:00;;;;;;;11.20;8.17;;;;;;;;;;5013969;28;20963;-47
2023/07/11 12:01:33;;;;;;;29.30;9.70;;;;;;;;;;5013172;28;20989;-46
2023/07/11 12:04:01;;;;;;;19.00;8.90;;;;;;;;;;5013812;28;21002;-47
2023/07/11 12:06:29;;;;;;;17.00;8.13;;;;;;;;;;5014144;28;20908;-47
2023/07/11 12:09:15;;;;;;;9.37;7.50;;;;;;;;;;5013885;28;20517;-47
2023/07/11 12:11:44;;;;;;;15.03;7.23;;;;;;;;;;5013572;28;20443;-46
2023/07/11 12:14:18;;;;;;;9.03;7.50;;;;;;;;;;5013010;28;20846;-47
2023/07/11 12:16:50;;;;;;;10.23;6.30;;;;;;;;;;5013615;28;20467;-47
2023/07/11 12:19:28;;;;;;;7.97;6.83;;;;;;;;;;5014035;28;20450;-47
2023/07/11 12:21:58;;;;;;;6.77;6.13;;;;;;;;;;5013503;28;20521;-47
2023/07/11 12:24:45;;;;;;;7.50;6.63;;;;;;;;;;5012945;28;20475;-48
2023/07/11 12:27:27;;;;;;;9.27;7.90;;;;;;;;;;5013662;28;20469;-47
2023/07/11 12:29:55;;;;;;;10.90;6.57;;;;;;;;;;4980879;28;20481;-47
2023/07/11 12:32:40;;;;;;;10.20;7.10;;;;;;;;;;5012928;28;21026;-48
2023/07/11 12:35:17;;;;;;;8.47;7.30;;;;;;;;;;5013229;28;20463;-48
2023/07/11 12:37:48;;;;;;;8.30;7.40;;;;;;;;;;5013531;28;20475;-47
2023/07/11 12:40:17;;;;;;;8.57;7.67;;;;;;;;;;5012865;28;20530;-47
2023/07/11 12:42:49;;;;;;;9.07;7.40;;;;;;;;;;5012516;28;20506;-47
2023/07/11 12:45:17;;;;;;;7.87;7.07;;;;;;;;;;5013258;28;20558;-46
2023/07/11 12:47:47;;;;;;;7.87;7.10;;;;;;;;;;5013112;28;20487;-47
2023/07/11 12:50:26;;;;;;;11.83;7.90;;;;;;;;;;5012814;28;20563;-47
2023/07/11 12:53:00;;;;;;;8.87;7.27;;;;;;;;;;5012150;28;20857;-47
2023/07/11 12:55:27;;;;;;;9.30;7.50;;;;;;;;;;5012190;28;20995;-47
2023/07/11 12:57:55;;;;;;;11.30;8.53;;;;;;;;;;5013496;28;20470;-46
2023/07/11 13:00:23;;;;;;;10.47;8.07;;;;;;;;;;5013158;28;20480;-47
2023/07/11 13:02:54;;;;;;;10.47;8.40;;;;;;;;;;5011883;28;20861;-48
2023/07/11 13:05:23;;;;;;;8.60;7.77;;;;;;;;;;5012551;28;20509;-48
2023/07/11 13:07:50;;;;;;;10.00;8.50;;;;;;;;;;5012686;28;20551;-47
2023/07/11 13:10:20;;;;;;;8.83;7.70;;;;;;;;;;5012823;28;20490;-47
2023/07/11 13:12:47;;;;;;;9.93;7.80;;;;;;;;;;5012516;28;20453;-47
2023/07/11 13:15:16;;;;;;;8.50;7.70;;;;;;;;;;5012182;28;20697;-47
2023/07/11 13:17:43;;;;;;;9.40;7.13;;;;;;;;;;5012448;28;20531;-47
2023/07/11 13:20:17;;;;;;;10.20;9.17;;;;;;;;;;5012342;28;20466;-47
2023/07/11 13:22:44;;;;;;;9.67;8.30;;;;;;;;;;5012068;28;20526;-47
2023/07/11 13:25:13;;;;;;;10.80;8.40;;;;;;;;;;5012606;28;20558;-47
2023/07/11 13:27:42;;;;;;;9.53;8.53;;;;;;;;;;5012545;28;20475;-48
2023/07/11 13:30:18;;;;;;;8.93;7.50;;;;;;;;;;5012119;28;20916;-48
2023/07/11 13:32:46;;;;;;;9.43;8.37;;;;;;;;;;5011145;28;20993;-47
2023/07/11 13:35:15;;;;;;;8.63;7.53;;;;;;;;;;5011668;28;20495;-47
2023/07/11 13:37:45;;;;;;;9.03;7.83;;;;;;;;;;5011491;28;20486;-47
2023/07/11 13:40:27;;;;;;;9.23;8.33;;;;;;;;;;5011511;28;20909;-47
2023/07/11 13:42:55;;;;;;;9.10;8.20;;;;;;;;;;5011460;28;20479;-47
2023/07/11 13:45:22;;;;;;;9.70;8.30;;;;;;;;;;5011960;28;20534;-47
2023/07/11 13:47:49;;;;;;;8.50;7.20;;;;;;;;;;5012100;28;20541;-47
2023/07/11 13:50:20;;;;;;;8.60;7.37;;;;;;;;;;5011746;28;20566;-47
2023/07/11 13:52:49;;;;;;;9.63;7.80;;;;;;;;;;5011592;28;20454;-47
2023/07/11 13:55:20;;;;;;;8.57;7.63;;;;;;;;;;5011472;28;20546;-48
2023/07/11 13:57:47;;;;;;;8.87;7.83;;;;;;;;;;5012059;28;20629;-47
2023/07/11 14:00:15;;;;;;;8.80;8.00;;;;;;;;;;5011832;28;20463;-47
2023/07/11 14:02:43;;;;;;;7.77;6.80;;;;;;;;;;5010984;28;20443;-47
2023/07/11 14:05:15;;;;;;;7.27;6.57;;;;;;;;;;5011143;28;20468;-47
2023/07/11 14:07:43;;;;;;;10.50;7.90;;;;;;;;;;5011744;28;20493;-47
2023/07/11 14:10:11;;;;;;;8.33;7.40;;;;;;;;;;5011699;28;20510;-47
2023/07/11 14:12:38;;;;;;;8.37;7.47;;;;;;;;;;5011051;28;20526;-47
2023/07/11 14:15:11;;;;;;;8.50;7.60;;;;;;;;;;5011171;28;20546;-47
2023/07/11 14:17:38;;;;;;;10.60;7.97;;;;;;;;;;5011220;28;20498;-47
2023/07/11 14:20:06;;;;;;;9.53;8.57;;;;;;;;;;5010910;28;20526;-47
2023/07/11 14:22:33;;;;;;;10.20;8.90;;;;;;;;;;5011126;28;20535;-47
2023/07/11 14:25:03;;;;;;;8.00;7.20;;;;;;;;;;5010373;28;20519;-46
2023/07/11 14:27:30;;;;;;;10.27;8.80;;;;;;;;;;5010724;28;20483;-47
2023/07/11 14:29:58;;;;;;;8.40;7.50;;;;;;;;;;5011315;28;20479;-47
2023/07/11 14:32:25;;;;;;;9.17;8.23;;;;;;;;;;5011039;28;20455;-47
2023/07/11 14:34:53;;;;;;;8.00;7.20;;;;;;;;;;5010538;28;20459;-47
2023/07/11 14:37:20;;;;;;;8.97;7.20;;;;;;;;;;5011110;28;20884;-47
2023/07/11 14:39:48;;;;;;;8.47;7.57;;;;;;;;;;5009985;28;20523;-46
2023/07/11 14:42:20;;;;;;;9.97;7.80;;;;;;;;;;5010681;28;20442;-46
2023/07/11 14:44:47;;;;;;;8.63;7.70;;;;;;;;;;5010875;28;21043;-47
2023/07/11 14:47:14;;;;;;;9.17;8.27;;;;;;;;;;5010760;28;20479;-47
2023/07/11 14:49:42;;;;;;;9.30;8.23;;;;;;;;;;5010918;28;20471;-46